Schedule Details


Flight Number: CTN651
Departure: Kastela (LDSP) at 06:15
Arrival: Franjo Tudman (LDZA) at 07:00
Route: SIRMI M725 RUDIK

Weather Information
LDSP 170030Z AUTO 36005KT CAVOK 13/04 Q1017
LDZA 170030Z 24003KT 0300 R04/0500N R22/1400D FG VV002 03/02 Q1022 NOSIG
Schedule Frequency

Route Map